Kossuth, PA (16331)

11:26 AM EST on February 10, 2016 (GMT -0500)
South Side | | Change Station
CLOSE
Current Station
Personal Weather Station
Location: Oil City, PA
Elevation: 1237 ft
Nearby Weather Stations
Active Advisory: Winter Weather Advisory

Elev 1237 ft 41.42 °N, 79.71 °W | Updated 12 minutes ago

Snow
Snow
23.2 °F
Feels Like 18 °F
N
4.2
Wind Variable Wind from WSW

Today
High -- | Low -- °F
--% Chance of Precip.
Yesterday
High -- | Low -- °F
Precip. -- in
Pressure 29.73 in
Visibility 2.5 miles
Clouds Scattered Clouds 1400 ft
Overcast 2000 ft
Windchill 18 °F
Dew Point 18 °F
Humidity 82%
Rainfall 0.00 in
Snow Depth Not available.
7:20 AM 5:45 PM
Waxing Crescent, 6% visible
METAR KFKL 101615Z 24012G16KT 2 1/2SM SCT014 OVC020 M07/M11 A2973 RMK AO1
Pressure 29.73 in
Visibility 2.5 miles
Clouds Scattered Clouds 1400 ft
Overcast 2000 ft
Windchill 18 °F
Dew Point 18 °F
Humidity 82%
Rainfall 0.00 in
Snow Depth Not available.
7:20 AM 5:45 PM
Waxing Crescent, 6% visible
METAR KFKL 101615Z 24012G16KT 2 1/2SM SCT014 OVC020 M07/M11 A2973 RMK AO1

10-Day Weather Forecast

Almanac

Astronomy

Feb. 10, 2016 Rise Set
Actual Time
Civil Twilight
Nautical Twilight
Astronomical Twilight
Moon
Length of Visible Light
Length of Day
Tomorrow will be .
, % of the Moon is Illuminated

Today's Extremes

State Highs State Lows

Community

WunderPhotos

Upload Photos

1,891,881 photos uploaded!

WunderBlog® & News

Nearby

Air Quality

  Air Quality AQ Index Pollutant
Not available.

Snow Depth

Station Depth Elevation

Earthquake Activity

City Distance Mag. Time & Date
Minimum magnitude displayed is 2.5.

Coastal Water Temperatures

Place Temperature

Stations

Nearby Weather Stations

Station Location Temp. Windchill Dew Point Humidity Wind Precip. Elev Updated Type
                   

Watches & Warnings

Winter Weather Advisory
Issued: 9:33 AM EST Feb. 10, 2016 – National Weather Service

... Winter Weather Advisory remains in effect until 7 PM EST
Thursday...

* snow accumulation... 4 to 6 inches.

* Period of most intense snow... in snow squalls this afternoon
and evening and in any lake effect bands that exist.

* Snow ending... snow showers will gradually diminish Thursday.

* Impacts... hazardous travel conditions are expected due to
snow. In lake effect snow... visibilities can quickly drop to a
mile or less.

Precautionary/preparedness actions...

A Winter Weather Advisory for snow means that periods of snow
will cause primarily travel difficulties. Be prepared for snow
covered roads and limited visibilities... and use caution while
driving.